createdAt,value
2018-04-10T00:00:58.275Z,99919.78
2018-04-10T00:03:27.663Z,99919.25
2018-04-10T00:05:56.263Z,99915.12
2018-04-10T00:08:25.651Z,99925.87
2018-04-10T00:10:54.102Z,99917.77
2018-04-10T00:13:22.418Z,99925.98
2018-04-10T00:15:51.555Z,99932.67
2018-04-10T00:18:19.942Z,99929.48
2018-04-10T00:20:48.526Z,99929.47
2018-04-10T00:23:17.147Z,99930.09
2018-04-10T00:25:46.026Z,99934.95
2018-04-10T00:28:14.415Z,99937.48
2018-04-10T00:30:42.684Z,99944.38
2018-04-10T00:33:11.005Z,99941.73
2018-04-10T00:35:40.200Z,99945.17
2018-04-10T00:38:09.381Z,99936.16
2018-04-10T00:40:38.401Z,99940.34
2018-04-10T00:43:06.860Z,99947.02
2018-04-10T00:45:35.887Z,99943.47
2018-04-10T00:48:04.307Z,99943.97
2018-04-10T00:50:32.586Z,99945.66
2018-04-10T00:53:14.525Z,99949.25
2018-04-10T00:55:43.743Z,99958.70
2018-04-10T00:58:12.218Z,99960.63
2018-04-10T01:00:40.704Z,99962.42
2018-04-10T01:03:09.160Z,99960.48
2018-04-10T01:05:38.322Z,99955.34
2018-04-10T01:08:06.619Z,99958.66
2018-04-10T01:10:34.897Z,99952.89
2018-04-10T01:13:03.231Z,99956.03
2018-04-10T01:15:31.563Z,99963.54
2018-04-10T01:18:00.537Z,99963.30
2018-04-10T01:20:30.219Z,99964.38
2018-04-10T01:22:58.494Z,99965.88
2018-04-10T01:25:26.990Z,99965.44
2018-04-10T01:27:55.516Z,99972.66
2018-04-10T01:30:24.540Z,99968.23
2018-04-10T01:32:53.171Z,99968.07
2018-04-10T01:35:21.583Z,99967.07
2018-04-10T01:37:49.931Z,99968.44
2018-04-10T01:40:18.237Z,99967.66
2018-04-10T01:42:46.686Z,99972.43
2018-04-10T01:45:14.959Z,99973.97
2018-04-10T01:47:43.258Z,99961.92
2018-04-10T01:50:12.641Z,99967.66
2018-04-10T01:52:40.950Z,99966.40
2018-04-10T01:55:09.310Z,99962.23
2018-04-10T01:57:38.514Z,99967.63
2018-04-10T02:00:07.519Z,99961.70
2018-04-10T02:02:36.930Z,99959.42
2018-04-10T02:05:05.527Z,99959.52
2018-04-10T02:07:34.089Z,99974.68
2018-04-10T02:10:03.143Z,99980.05
2018-04-10T02:12:31.394Z,99974.81
2018-04-10T02:14:59.634Z,99971.45
2018-04-10T02:17:51.952Z,99972.63
2018-04-10T02:20:20.618Z,99977.48
2018-04-10T02:22:48.833Z,99978.94
2018-04-10T02:25:18.036Z,99968.88
2018-04-10T02:27:47.290Z,99966.98
2018-04-10T02:30:15.668Z,99969.38
2018-04-10T02:32:44.047Z,99966.70
2018-04-10T02:35:12.292Z,99964.06
2018-04-10T02:37:40.567Z,99966.09
2018-04-10T02:40:08.822Z,99969.72
2018-04-10T02:42:38.058Z,99964.39
2018-04-10T02:45:06.317Z,99960.72
2018-04-10T02:47:35.056Z,99963.81
2018-04-10T02:50:03.659Z,99976.82
2018-04-10T02:52:32.624Z,99984.55
2018-04-10T02:55:01.012Z,99987.08
2018-04-10T02:57:29.490Z,99992.83
2018-04-10T02:59:57.760Z,99987.63
2018-04-10T03:02:26.033Z,99986.01
2018-04-10T03:04:54.276Z,99984.89
2018-04-10T03:07:22.900Z,99979.16
2018-04-10T03:09:51.126Z,99978.80
2018-04-10T03:12:19.652Z,99981.06
2018-04-10T03:14:47.915Z,99983.41
2018-04-10T03:17:16.202Z,99990.66
2018-04-10T03:19:44.437Z,99998.43
2018-04-10T03:22:12.812Z,99995.97
2018-04-10T03:24:41.836Z,99989.69
2018-04-10T03:27:10.108Z,99988.61
2018-04-10T03:29:38.577Z,99990.04
2018-04-10T03:32:07.108Z,99988.43
2018-04-10T03:34:35.357Z,99988.64
2018-04-10T03:37:03.766Z,99994.07
2018-04-10T03:39:32.160Z,99996.59
2018-04-10T03:42:00.388Z,99991.33
2018-04-10T03:44:28.637Z,99989.89
2018-04-10T03:46:56.882Z,99989.75
2018-04-10T03:49:25.333Z,99991.33
2018-04-10T03:51:53.670Z,99986.20
2018-04-10T03:54:22.305Z,99989.29
2018-04-10T03:56:50.605Z,99991.39
2018-04-10T03:59:19.026Z,100004.59
2018-04-10T04:01:47.634Z,99996.81
2018-04-10T04:04:16.322Z,99997.48
2018-04-10T04:06:44.594Z,100000.06
2018-04-10T04:09:13.222Z,99998.67
2018-04-10T04:11:42.523Z,100000.61
2018-04-10T04:14:10.970Z,100004.15
2018-04-10T04:17:42.461Z,100003.00
2018-04-10T04:21:26.432Z,100005.95
2018-04-10T04:23:55.469Z,100005.56
2018-04-10T04:26:23.833Z,100004.03
2018-04-10T04:28:52.510Z,100006.02
2018-04-10T04:31:20.873Z,100005.51
2018-04-10T04:33:50.111Z,100013.68
2018-04-10T04:36:18.441Z,100008.92
2018-04-10T04:38:46.912Z,100008.77
2018-04-10T04:41:16.298Z,100017.91
2018-04-10T04:43:44.973Z,100007.63
2018-04-10T04:46:13.541Z,100011.59
2018-04-10T04:48:42.125Z,100011.34
2018-04-10T04:51:10.547Z,100012.66
2018-04-10T04:53:39.933Z,100015.80
2018-04-10T04:56:08.475Z,100016.41
2018-04-10T04:58:36.935Z,100018.09
2018-04-10T05:01:05.982Z,100018.95
2018-04-10T05:03:34.430Z,100022.58
2018-04-10T05:06:02.785Z,100017.61
2018-04-10T05:08:31.141Z,100022.99
2018-04-10T05:10:59.697Z,100024.70
2018-04-10T05:13:28.178Z,100025.38
2018-04-10T05:15:56.501Z,100028.66
2018-04-10T05:18:25.590Z,100035.70
2018-04-10T05:20:54.836Z,100034.25
2018-04-10T05:23:23.317Z,100033.55
2018-04-10T05:25:51.804Z,100033.01
2018-04-10T05:28:20.370Z,100035.36
2018-04-10T05:30:48.739Z,100038.88
2018-04-10T05:33:17.265Z,100043.11
2018-04-10T05:35:45.579Z,100047.17
2018-04-10T05:38:16.426Z,100052.68
2018-04-10T05:40:45.934Z,100056.22
2018-04-10T05:43:15.010Z,100045.77
2018-04-10T05:45:44.040Z,100044.41
2018-04-10T05:48:12.302Z,100049.05
2018-04-10T05:50:40.762Z,100050.19
2018-04-10T05:53:09.106Z,100056.56
2018-04-10T05:55:37.434Z,100052.00
2018-04-10T05:58:06.844Z,100060.72
2018-04-10T06:00:36.062Z,100063.36
2018-04-10T06:03:04.450Z,100067.86
2018-04-10T06:05:33.052Z,100065.88
2018-04-10T06:08:01.516Z,100067.39
2018-04-10T06:10:30.210Z,100070.75
2018-04-10T06:13:05.109Z,100075.74
2018-04-10T06:15:33.401Z,100080.67
2018-04-10T06:18:02.032Z,100076.20
2018-04-10T06:20:30.390Z,100081.84
2018-04-10T06:22:58.763Z,100079.74
2018-04-10T06:25:27.090Z,100087.16
2018-04-10T06:27:56.466Z,100086.95
2018-04-10T06:30:24.937Z,100086.93
2018-04-10T06:32:53.797Z,100090.24
2018-04-10T06:35:22.569Z,100091.47
2018-04-10T06:37:51.199Z,100085.57
2018-04-10T06:40:19.851Z,100088.95
2018-04-10T06:42:48.458Z,100088.25
2018-04-10T06:45:16.889Z,100097.59
2018-04-10T06:47:46.352Z,100091.05
2018-04-10T06:50:15.693Z,100102.63
2018-04-10T06:52:44.703Z,100091.98
2018-04-10T06:55:13.046Z,100092.69
2018-04-10T06:57:41.614Z,100098.39
2018-04-10T07:00:09.930Z,100098.59
2018-04-10T07:02:39.083Z,100097.11
2018-04-10T07:05:07.696Z,100102.41
2018-04-10T07:07:36.022Z,100087.74
2018-04-10T07:10:04.379Z,100095.27
2018-04-10T07:12:33.702Z,100091.53
2018-04-10T07:15:02.226Z,100086.68
2018-04-10T07:17:30.605Z,100100.82
2018-04-10T07:19:59.274Z,100108.09
2018-04-10T07:22:27.586Z,100110.70
2018-04-10T07:24:57.039Z,100100.97
2018-04-10T07:27:25.315Z,100100.49
2018-04-10T07:29:53.765Z,100109.23
2018-04-10T07:32:22.777Z,100109.16
2018-04-10T07:34:51.102Z,100117.39
2018-04-10T07:37:19.656Z,100114.62
2018-04-10T07:39:48.089Z,100128.73
2018-04-10T07:42:17.381Z,100132.34
2018-04-10T07:44:45.645Z,100136.86
2018-04-10T07:47:14.227Z,100140.91
2018-04-10T07:49:42.682Z,100138.19
2018-04-10T07:52:11.044Z,100135.11
2018-04-10T07:54:39.566Z,100138.87
2018-04-10T07:57:07.870Z,100148.34
2018-04-10T07:59:36.946Z,100149.25
2018-04-10T08:02:05.221Z,100152.06
2018-04-10T08:04:33.623Z,100155.83
2018-04-10T08:07:02.721Z,100154.27
2018-04-10T08:09:31.787Z,100156.84
2018-04-10T08:12:00.298Z,100158.52
2018-04-10T08:14:29.338Z,100156.61
2018-04-10T08:16:57.659Z,100165.38
2018-04-10T08:19:26.111Z,100167.36
2018-04-10T08:21:54.385Z,100169.49
2018-04-10T08:24:24.704Z,100174.05
2018-04-10T08:26:52.966Z,100171.94
2018-04-10T08:29:21.275Z,100171.77
2018-04-10T08:31:56.574Z,100181.73
2018-04-10T08:34:25.012Z,100180.38
2018-04-10T08:36:53.315Z,100177.01
2018-04-10T08:39:22.328Z,100182.87
2018-04-10T08:41:50.611Z,100179.13
2018-04-10T08:44:18.903Z,100178.05
2018-04-10T08:46:47.266Z,100176.84
2018-04-10T08:49:15.995Z,100177.88
2018-04-10T08:51:44.425Z,100179.54
2018-04-10T08:54:13.008Z,100178.22
2018-04-10T08:56:41.490Z,100170.71
2018-04-10T08:59:09.870Z,100173.67
2018-04-10T09:01:38.377Z,100175.48
2018-04-10T09:04:07.059Z,100175.34
2018-04-10T09:06:35.555Z,100170.66
2018-04-10T09:09:05.485Z,100167.73
2018-04-10T09:11:33.915Z,100176.70
2018-04-10T09:14:02.271Z,100175.01
2018-04-10T09:16:31.472Z,100179.03
2018-04-10T09:19:00.507Z,100178.73
2018-04-10T09:21:28.947Z,100177.62
2018-04-10T09:23:58.346Z,100182.55
2018-04-10T09:26:27.562Z,100182.78
2018-04-10T09:28:55.955Z,100181.36
2018-04-10T09:31:24.414Z,100181.66
2018-04-10T09:33:53.002Z,100187.29
2018-04-10T09:36:21.584Z,100189.78
2018-04-10T09:38:49.859Z,100187.75
2018-04-10T09:41:18.406Z,100198.23
2018-04-10T09:43:46.800Z,100188.67
2018-04-10T09:46:15.214Z,100190.80
2018-04-10T09:48:43.685Z,100187.84
2018-04-10T09:51:12.378Z,100185.66
2018-04-10T09:53:41.165Z,100188.05
2018-04-10T09:56:09.555Z,100185.57
2018-04-10T09:58:37.904Z,100193.61
2018-04-10T10:01:06.937Z,100188.78
2018-04-10T10:03:35.731Z,100189.98
2018-04-10T10:06:04.110Z,100187.56
2018-04-10T10:08:32.541Z,100188.22
2018-04-10T10:11:00.970Z,100186.26
2018-04-10T10:13:29.216Z,100190.02
2018-04-10T10:15:58.314Z,100187.70
2018-04-10T10:18:26.610Z,100188.86
2018-04-10T10:20:55.523Z,100185.15
2018-04-10T10:23:24.321Z,100188.50
2018-04-10T10:25:52.793Z,100191.84
2018-04-10T10:28:21.092Z,100190.09
2018-04-10T10:30:49.380Z,100193.50
2018-04-10T10:33:17.717Z,100192.53
2018-04-10T10:35:46.152Z,100196.40
2018-04-10T10:38:15.659Z,100201.70
2018-04-10T10:40:44.945Z,100197.83
2018-04-10T10:43:13.333Z,100196.45
2018-04-10T10:45:42.837Z,100196.77
2018-04-10T10:48:12.002Z,100193.64
2018-04-10T10:50:40.566Z,100195.22
2018-04-10T10:53:08.878Z,100195.56
2018-04-10T10:55:37.323Z,100191.12
2018-04-10T10:58:05.787Z,100195.43
2018-04-10T11:00:34.225Z,100188.63
2018-04-10T11:03:02.541Z,100187.95
2018-04-10T11:05:30.957Z,100176.72
2018-04-10T11:07:59.240Z,100181.05
2018-04-10T11:10:27.614Z,100178.14
2018-04-10T11:12:55.971Z,100177.99
2018-04-10T11:15:24.316Z,100184.17
2018-04-10T11:17:53.482Z,100176.84
2018-04-10T11:20:22.455Z,100180.47
2018-04-10T11:22:51.066Z,100183.17
2018-04-10T11:25:19.365Z,100181.22
2018-04-10T11:27:48.491Z,100168.23
2018-04-10T11:30:17.277Z,100168.66
2018-04-10T11:32:45.549Z,100163.11
2018-04-10T11:35:14.201Z,100165.02
2018-04-10T11:37:42.805Z,100163.95
2018-04-10T11:40:11.926Z,100163.44
2018-04-10T11:42:40.423Z,100162.23
2018-04-10T11:45:08.932Z,100160.89
2018-04-10T11:47:37.602Z,100163.85
2018-04-10T11:50:06.249Z,100166.83
2018-04-10T11:52:35.359Z,100163.93
2018-04-10T11:55:03.925Z,100170.68
2018-04-10T11:57:33.622Z,100165.95
2018-04-10T12:00:02.770Z,100165.97
2018-04-10T12:02:31.231Z,100159.05
2018-04-10T12:04:59.609Z,100158.20
2018-04-10T12:07:28.811Z,100151.34
2018-04-10T12:09:57.196Z,100146.75
2018-04-10T12:12:25.678Z,100150.65
2018-04-10T12:14:54.037Z,100142.17
2018-04-10T12:17:22.423Z,100143.98
2018-04-10T12:19:51.070Z,100137.68
2018-04-10T12:22:19.366Z,100134.31
2018-04-10T12:24:48.526Z,100139.26
2018-04-10T12:27:17.046Z,100143.00
2018-04-10T12:29:46.311Z,100138.30
2018-04-10T12:32:14.884Z,100140.06
2018-04-10T12:34:43.259Z,100141.47
2018-04-10T12:37:11.653Z,100131.44
2018-04-10T12:39:40.513Z,100139.30
2018-04-10T12:42:08.843Z,100141.95
2018-04-10T12:44:38.612Z,100136.67
2018-04-10T12:47:07.273Z,100141.36
2018-04-10T12:49:35.766Z,100132.97
2018-04-10T12:52:04.273Z,100131.86
2018-04-10T12:54:32.876Z,100124.55
2018-04-10T12:57:01.194Z,100132.65
2018-04-10T12:59:29.577Z,100129.08
2018-04-10T13:01:58.011Z,100124.19
2018-04-10T13:04:26.811Z,100120.05
2018-04-10T13:06:55.365Z,100126.39
2018-04-10T13:09:23.906Z,100121.39
2018-04-10T13:11:52.231Z,100119.41
2018-04-10T13:14:20.857Z,100114.22
2018-04-10T13:16:50.346Z,100112.64
2018-04-10T13:19:18.643Z,100115.08
2018-04-10T13:21:47.887Z,100107.07
2018-04-10T13:24:17.165Z,100111.20
2018-04-10T13:26:45.557Z,100102.24
2018-04-10T13:29:14.191Z,100109.50
2018-04-10T13:31:42.583Z,100100.84
2018-04-10T13:34:11.862Z,100097.05
2018-04-10T13:36:40.477Z,100096.88
2018-04-10T13:39:09.606Z,100092.23
2018-04-10T13:41:38.023Z,100096.61
2018-04-10T13:44:06.602Z,100092.13
2018-04-10T13:46:34.863Z,100087.71
2018-04-10T13:49:03.150Z,100087.32
2018-04-10T13:51:31.829Z,100085.52
2018-04-10T13:54:01.067Z,100079.34
2018-04-10T13:56:29.611Z,100078.38
2018-04-10T13:58:57.946Z,100072.99
2018-04-10T14:01:26.466Z,100072.01
2018-04-10T14:03:54.958Z,100072.30
2018-04-10T14:06:23.406Z,100064.64
2018-04-10T14:08:52.501Z,100068.00
2018-04-10T14:11:20.789Z,100062.92
2018-04-10T14:13:49.844Z,100062.94
2018-04-10T14:16:18.146Z,100066.34
2018-04-10T14:18:46.437Z,100056.10
2018-04-10T14:21:15.026Z,100054.94
2018-04-10T14:23:45.105Z,100056.73
2018-04-10T14:26:13.474Z,100048.64
2018-04-10T14:28:41.965Z,100047.76
2018-04-10T14:31:10.358Z,100044.73
2018-04-10T14:33:45.392Z,100036.77
2018-04-10T14:36:13.839Z,100038.92
2018-04-10T14:38:42.222Z,100038.33
2018-04-10T14:41:10.590Z,100031.36
2018-04-10T14:43:39.044Z,100030.30
2018-04-10T14:46:07.401Z,100032.83
2018-04-10T14:48:36.598Z,100020.55
2018-04-10T14:51:05.950Z,100025.74
2018-04-10T14:53:34.531Z,100025.07
2018-04-10T14:56:03.149Z,100021.53
2018-04-10T14:58:31.661Z,100016.27
2018-04-10T15:01:00.801Z,100021.64
2018-04-10T15:03:29.114Z,100023.96
2018-04-10T15:05:57.590Z,100021.14
2018-04-10T15:08:25.957Z,100023.45
2018-04-10T15:10:54.297Z,100023.14
2018-04-10T15:13:22.675Z,100008.17
2018-04-10T15:15:51.063Z,100012.74
2018-04-10T15:18:19.691Z,100009.41
2018-04-10T15:20:48.081Z,100009.61
2018-04-10T15:23:17.325Z,100010.51
2018-04-10T15:25:46.040Z,100009.98
2018-04-10T15:28:15.583Z,100009.13
2018-04-10T15:30:43.990Z,100009.17
2018-04-10T15:33:12.497Z,99999.31
2018-04-10T15:35:40.881Z,100001.50
2018-04-10T15:38:09.276Z,100004.41
2018-04-10T15:40:37.668Z,99995.23
2018-04-10T15:43:06.906Z,100005.14
2018-04-10T15:45:35.435Z,99995.58
2018-04-10T15:48:04.079Z,99994.92
2018-04-10T15:50:32.637Z,99998.93
2018-04-10T15:53:01.005Z,99997.56
2018-04-10T15:55:30.102Z,99993.92
2018-04-10T15:57:59.341Z,99998.85
2018-04-10T16:00:27.671Z,99998.88
2018-04-10T16:02:57.041Z,99995.34
2018-04-10T16:05:25.513Z,100001.28
2018-04-10T16:07:53.897Z,99991.89
2018-04-10T16:10:22.740Z,99997.17
2018-04-10T16:12:51.401Z,100002.31
2018-04-10T16:15:19.785Z,99998.45
2018-04-10T16:17:49.039Z,100000.00
2018-04-10T16:20:17.421Z,100000.66
2018-04-10T16:22:46.017Z,99998.89
2018-04-10T16:25:14.827Z,100001.62
2018-04-10T16:27:43.961Z,99992.38
2018-04-10T16:30:12.298Z,99996.23
2018-04-10T16:32:41.519Z,99996.52
2018-04-10T16:35:10.103Z,99997.84
2018-04-10T16:37:38.617Z,99996.55
2018-04-10T16:40:07.841Z,99990.09
2018-04-10T16:42:36.258Z,99990.41
2018-04-10T16:45:04.699Z,99987.67
2018-04-10T16:47:33.333Z,99987.61
2018-04-10T16:50:01.810Z,99992.05
2018-04-10T16:52:30.425Z,99992.95
2018-04-10T16:54:59.644Z,99998.83
2018-04-10T16:57:28.553Z,99998.46
2018-04-10T16:59:59.280Z,99992.99
2018-04-10T17:02:29.942Z,99990.91
2018-04-10T17:05:01.209Z,99996.62
2018-04-10T17:07:35.426Z,99992.10
2018-04-10T17:10:14.576Z,99990.53
2018-04-10T17:12:44.265Z,99989.95
2018-04-10T17:15:12.941Z,99992.53
2018-04-10T17:17:41.446Z,99994.11
2018-04-10T17:20:09.993Z,99996.98
2018-04-10T17:22:40.092Z,99995.17
2018-04-10T17:25:11.113Z,100000.70
2018-04-10T17:27:39.569Z,100001.16
2018-04-10T17:30:08.565Z,100006.95
2018-04-10T17:32:37.022Z,100012.79
2018-04-10T17:35:05.450Z,100010.28
2018-04-10T17:37:33.971Z,100009.34
2018-04-10T17:40:10.600Z,100021.74
2018-04-10T17:42:40.546Z,100017.78
2018-04-10T17:45:10.704Z,100030.59
2018-04-10T17:47:39.808Z,100024.08
2018-04-10T17:50:08.258Z,100015.94
2018-04-10T17:52:37.113Z,100015.96
2018-04-10T17:55:12.778Z,100023.58
2018-04-10T17:57:41.199Z,100019.84
2018-04-10T18:00:10.332Z,100020.80
2018-04-10T18:02:39.071Z,100016.41
2018-04-10T18:05:07.676Z,100015.88
2018-04-10T18:07:37.306Z,100020.02
2018-04-10T18:10:06.166Z,100019.38
2018-04-10T18:12:34.523Z,100011.73
2018-04-10T18:15:03.100Z,100011.48
2018-04-10T18:17:33.561Z,100012.50
2018-04-10T18:20:02.017Z,100020.86
2018-04-10T18:22:31.172Z,100021.00
2018-04-10T18:25:01.109Z,100024.16
2018-04-10T18:27:29.508Z,100022.52
2018-04-10T18:29:58.305Z,100015.66
2018-04-10T18:32:26.753Z,100007.63
2018-04-10T18:34:55.161Z,100003.59
2018-04-10T18:37:23.742Z,100000.58
2018-04-10T18:39:52.234Z,100000.67
2018-04-10T18:42:20.789Z,99997.52
2018-04-10T18:44:49.241Z,100005.56
2018-04-10T18:47:17.628Z,100011.50
2018-04-10T18:49:46.027Z,100021.36
2018-04-10T18:52:14.368Z,100021.59
2018-04-10T18:54:42.765Z,100019.13
2018-04-10T18:57:12.133Z,100015.50
2018-04-10T18:59:40.747Z,100014.55
2018-04-10T19:02:09.911Z,100022.40
2018-04-10T19:04:38.369Z,100027.81
2018-04-10T19:07:06.893Z,100037.33
2018-04-10T19:09:36.244Z,100039.23
2018-04-10T19:12:04.770Z,100043.94
2018-04-10T19:14:33.525Z,100041.70
2018-04-10T19:17:01.950Z,100031.33
2018-04-10T19:19:30.450Z,100038.33
2018-04-10T19:21:59.019Z,100028.15
2018-04-10T19:24:28.304Z,100025.89
2018-04-10T19:26:56.763Z,100001.72
2018-04-10T19:29:25.187Z,99991.25
2018-04-10T19:31:53.643Z,100000.37
2018-04-10T19:34:22.074Z,100028.59
2018-04-10T19:36:50.487Z,100113.81
2018-04-10T19:39:18.911Z,100146.17
2018-04-10T19:41:48.135Z,100163.48
2018-04-10T19:44:16.530Z,100078.27
2018-04-10T19:46:44.880Z,100029.32
2018-04-10T19:49:13.316Z,100042.64
2018-04-10T19:51:41.814Z,100059.67
2018-04-10T19:54:11.175Z,100160.09
2018-04-10T19:56:39.539Z,100250.30
2018-04-10T19:59:07.960Z,100292.13
2018-04-10T20:01:36.637Z,100241.00
2018-04-10T20:04:05.411Z,100260.68
2018-04-10T20:06:34.360Z,100248.85
2018-04-10T20:09:03.484Z,100237.45
2018-04-10T20:11:32.112Z,100211.22
2018-04-10T20:14:00.737Z,100203.28
2018-04-10T20:16:29.524Z,100198.59
2018-04-10T20:18:58.145Z,100168.69
2018-04-10T20:21:26.729Z,100166.16
2018-04-10T20:23:55.216Z,100155.23
2018-04-10T20:26:30.389Z,100156.75
2018-04-10T20:28:58.885Z,100157.16
2018-04-10T20:31:27.461Z,100170.45
2018-04-10T20:33:56.683Z,100165.33
2018-04-10T20:36:25.262Z,100166.09
2018-04-10T20:38:53.813Z,100155.87
2018-04-10T20:41:23.079Z,100140.42
2018-04-10T20:43:51.752Z,100139.27
2018-04-10T20:46:20.218Z,100143.14
2018-04-10T20:48:48.763Z,100151.17
2018-04-10T20:51:18.078Z,100153.40
2018-04-10T20:53:46.579Z,100181.91
2018-04-10T20:56:15.095Z,100185.66
2018-04-10T20:58:43.677Z,100193.01
2018-04-10T21:01:12.257Z,100209.65
2018-04-10T21:03:40.982Z,100225.75
2018-04-10T21:06:10.109Z,100268.86
2018-04-10T21:08:38.614Z,100259.99
2018-04-10T21:11:07.150Z,100268.03
2018-04-10T21:13:35.738Z,100279.33
2018-04-10T21:16:04.387Z,100282.75
2018-04-10T21:18:32.846Z,100284.70
2018-04-10T21:21:01.443Z,100278.26
2018-04-10T21:23:29.919Z,100244.92
2018-04-10T21:25:58.396Z,100210.39
2018-04-10T21:28:26.885Z,100156.69
2018-04-10T21:30:55.394Z,100155.26
2018-04-10T21:33:24.602Z,100167.95
2018-04-10T21:35:53.808Z,100185.90
2018-04-10T21:38:22.257Z,100202.59
2018-04-10T21:40:51.597Z,100202.55
2018-04-10T21:43:24.732Z,100196.31
2018-04-10T21:46:00.192Z,100217.48
2018-04-10T21:48:28.743Z,100223.31
2018-04-10T21:50:57.222Z,100234.93
2018-04-10T21:53:25.833Z,100239.09
2018-04-10T21:55:54.348Z,100238.69
2018-04-10T21:58:22.815Z,100239.23
2018-04-10T22:00:52.075Z,100244.70
2018-04-10T22:03:20.505Z,100242.35
2018-04-10T22:05:49.311Z,100238.14
2018-04-10T22:08:18.009Z,100238.19
2018-04-10T22:10:46.454Z,100240.11
2018-04-10T22:13:15.596Z,100232.94
2018-04-10T22:15:43.973Z,100245.65
2018-04-10T22:18:12.464Z,100247.11
2018-04-10T22:20:40.855Z,100255.92
2018-04-10T22:23:09.406Z,100255.52
2018-04-10T22:25:37.878Z,100261.77
2018-04-10T22:28:06.329Z,100257.67
2018-04-10T22:30:34.719Z,100257.13
2018-04-10T22:33:03.105Z,100266.66
2018-04-10T22:35:31.571Z,100271.44
2018-04-10T22:38:00.024Z,100267.95
2018-04-10T22:40:29.195Z,100266.66
2018-04-10T22:42:57.669Z,100288.75
2018-04-10T22:45:26.070Z,100290.09
2018-04-10T22:47:55.159Z,100294.67
2018-04-10T22:50:23.550Z,100297.36
2018-04-10T22:52:51.920Z,100295.13
2018-04-10T22:55:21.131Z,100299.16
2018-04-10T22:57:50.518Z,100303.59
2018-04-10T23:00:19.189Z,100307.88
2018-04-10T23:02:47.607Z,100309.45
2018-04-10T23:05:16.023Z,100308.15
2018-04-10T23:07:44.425Z,100309.36
2018-04-10T23:10:12.786Z,100302.45
2018-04-10T23:12:41.168Z,100313.78
2018-04-10T23:15:09.902Z,100309.95
2018-04-10T23:17:39.023Z,100318.28
2018-04-10T23:20:07.425Z,100318.86
2018-04-10T23:22:35.894Z,100324.22
2018-04-10T23:25:04.391Z,100325.07
2018-04-10T23:27:32.999Z,100329.19
2018-04-10T23:30:01.368Z,100324.77
2018-04-10T23:32:29.938Z,100338.11
2018-04-10T23:34:58.367Z,100340.88
2018-04-10T23:37:26.736Z,100344.90
2018-04-10T23:39:55.346Z,100342.30
2018-04-10T23:42:24.508Z,100342.66
2018-04-10T23:44:53.049Z,100340.09
2018-04-10T23:47:21.523Z,100340.67
2018-04-10T23:49:50.644Z,100339.08
2018-04-10T23:52:18.963Z,100338.56
2018-04-10T23:54:47.551Z,100339.69
2018-04-10T23:57:16.019Z,100341.50
2018-04-10T23:59:44.395Z,100339.73
